createdAt,value
2018-11-01T00:01:02.044Z,10.00
2018-11-01T00:03:30.112Z,10.00
2018-11-01T00:05:58.148Z,10.00
2018-11-01T00:08:26.375Z,10.00
2018-11-01T00:10:54.535Z,9.90
2018-11-01T00:13:22.560Z,9.90
2018-11-01T00:15:50.580Z,9.90
2018-11-01T00:18:18.608Z,9.90
2018-11-01T00:20:46.635Z,10.00
2018-11-01T00:23:14.653Z,9.90
2018-11-01T00:25:42.668Z,9.90
2018-11-01T00:28:10.708Z,9.90
2018-11-01T00:30:38.736Z,9.90
2018-11-01T00:33:06.748Z,9.90
2018-11-01T00:35:34.752Z,9.90
2018-11-01T00:38:02.801Z,9.90
2018-11-01T00:40:30.819Z,9.90
2018-11-01T00:42:58.828Z,9.90
2018-11-01T00:45:26.860Z,9.90
2018-11-01T00:47:54.883Z,9.90
2018-11-01T00:50:22.936Z,9.90
2018-11-01T00:52:50.976Z,9.90
2018-11-01T00:55:18.980Z,9.80
2018-11-01T00:57:47.009Z,9.80
2018-11-01T01:00:15.845Z,9.70
2018-11-01T01:02:43.888Z,9.70
2018-11-01T01:05:12.182Z,9.70
2018-11-01T01:07:40.216Z,9.60
2018-11-01T01:10:10.308Z,9.70
2018-11-01T01:12:38.656Z,9.60
2018-11-01T01:15:07.348Z,9.60
2018-11-01T01:17:35.384Z,9.60
2018-11-01T01:20:04.325Z,9.70
2018-11-01T01:22:32.356Z,9.70
2018-11-01T01:25:00.369Z,9.70
2018-11-01T01:27:28.393Z,9.70
2018-11-01T01:29:56.421Z,9.70
2018-11-01T01:32:24.439Z,9.60
2018-11-01T01:34:52.452Z,9.60
2018-11-01T01:37:20.481Z,9.60
2018-11-01T01:39:48.505Z,9.50
2018-11-01T01:42:16.540Z,9.40
2018-11-01T01:44:44.560Z,9.40
2018-11-01T01:47:12.576Z,9.40
2018-11-01T01:49:40.605Z,9.30
2018-11-01T01:52:08.620Z,9.30
2018-11-01T01:54:36.655Z,9.20
2018-11-01T01:57:04.723Z,9.20
2018-11-01T01:59:32.729Z,9.20
2018-11-01T02:02:00.748Z,9.20
2018-11-01T02:04:28.764Z,9.30
2018-11-01T02:06:56.772Z,9.20
2018-11-01T02:09:24.804Z,9.20
2018-11-01T02:11:53.024Z,9.20
2018-11-01T02:14:20.852Z,9.20
2018-11-01T02:16:48.865Z,9.20
2018-11-01T02:19:16.876Z,9.20
2018-11-01T02:21:44.919Z,9.20
2018-11-01T02:24:12.944Z,9.20
2018-11-01T02:26:40.957Z,9.30
2018-11-01T02:29:08.980Z,9.30
2018-11-01T02:31:36.995Z,9.30
2018-11-01T02:34:05.245Z,9.20
2018-11-01T02:36:33.253Z,9.20
2018-11-01T02:39:01.287Z,9.30
2018-11-01T02:41:29.296Z,9.30
2018-11-01T02:43:57.317Z,9.30
2018-11-01T02:46:25.357Z,9.30
2018-11-01T02:48:53.378Z,9.20
2018-11-01T02:51:21.388Z,9.20
2018-11-01T02:53:49.396Z,9.20
2018-11-01T02:56:17.405Z,9.30
2018-11-01T02:58:45.424Z,9.30
2018-11-01T03:01:18.068Z,9.30
2018-11-01T03:03:47.257Z,9.30
2018-11-01T03:06:15.440Z,9.40
2018-11-01T03:08:43.488Z,9.40
2018-11-01T03:11:11.681Z,9.40
2018-11-01T03:13:39.713Z,9.40
2018-11-01T03:16:08.042Z,9.50
2018-11-01T03:18:36.224Z,9.50
2018-11-01T03:21:04.246Z,9.50
2018-11-01T03:23:32.540Z,9.50
2018-11-01T03:26:00.572Z,9.50
2018-11-01T03:28:28.584Z,9.50
2018-11-01T03:30:56.766Z,9.60
2018-11-01T03:33:24.780Z,9.60
2018-11-01T03:35:52.774Z,9.60
2018-11-01T03:38:20.850Z,9.60
2018-11-01T03:40:48.815Z,9.60
2018-11-01T03:43:16.820Z,9.60
2018-11-01T03:45:44.882Z,9.50
2018-11-01T03:48:12.846Z,9.50
2018-11-01T03:50:40.865Z,9.50
2018-11-01T03:53:08.904Z,9.50
2018-11-01T03:55:36.895Z,9.50
2018-11-01T03:58:05.184Z,9.50
2018-11-01T04:00:33.188Z,9.50
2018-11-01T04:03:01.212Z,9.50
2018-11-01T04:05:29.222Z,9.50
2018-11-01T04:07:57.233Z,9.50
2018-11-01T04:10:25.244Z,9.50
2018-11-01T04:12:53.260Z,9.50
2018-11-01T04:15:21.416Z,9.50
2018-11-01T04:17:49.340Z,9.50
2018-11-01T04:20:17.365Z,9.50
2018-11-01T04:22:45.418Z,9.40
2018-11-01T04:25:13.822Z,9.40
2018-11-01T04:27:42.182Z,9.30
2018-11-01T04:30:10.364Z,9.30
2018-11-01T04:32:38.378Z,9.20
2018-11-01T04:35:06.809Z,9.20
2018-11-01T04:37:34.805Z,9.20
2018-11-01T04:40:02.853Z,9.10
2018-11-01T04:42:30.881Z,9.10
2018-11-01T04:44:58.985Z,9.10
2018-11-01T04:47:27.025Z,9.00
2018-11-01T04:49:54.960Z,9.00
2018-11-01T04:52:22.984Z,9.00
2018-11-01T04:54:51.003Z,8.90
2018-11-01T04:57:19.016Z,8.80
2018-11-01T04:59:47.036Z,8.80
2018-11-01T05:02:15.049Z,8.70
2018-11-01T05:04:43.077Z,8.70
2018-11-01T05:07:11.075Z,8.60
2018-11-01T05:09:39.088Z,8.60
2018-11-01T05:12:07.112Z,8.60
2018-11-01T05:14:35.137Z,8.60
2018-11-01T05:17:03.148Z,8.60
2018-11-01T05:19:31.156Z,8.60
2018-11-01T05:21:59.159Z,8.50
2018-11-01T05:24:27.193Z,8.60
2018-11-01T05:26:55.210Z,8.50
2018-11-01T05:29:23.231Z,8.50
2018-11-01T05:31:51.304Z,8.50
2018-11-01T05:34:19.340Z,8.50
2018-11-01T05:36:47.378Z,8.50
2018-11-01T05:39:15.426Z,8.50
2018-11-01T05:41:43.459Z,8.50
2018-11-01T05:44:11.476Z,8.50
2018-11-01T05:46:39.513Z,8.50
2018-11-01T05:49:07.524Z,8.50
2018-11-01T05:51:35.548Z,8.50
2018-11-01T05:54:03.660Z,8.50
2018-11-01T05:56:35.162Z,8.50
2018-11-01T05:59:06.440Z,8.50
2018-11-01T06:01:41.070Z,8.50
2018-11-01T06:04:09.144Z,8.50
2018-11-01T06:06:44.654Z,8.50
2018-11-01T06:09:24.702Z,8.50
2018-11-01T06:11:53.945Z,8.50
2018-11-01T06:14:21.987Z,8.50
2018-11-01T06:16:50.169Z,8.50
2018-11-01T06:19:18.185Z,8.50
2018-11-01T06:21:46.199Z,8.50
2018-11-01T06:24:15.103Z,8.50
2018-11-01T06:26:43.456Z,8.50
2018-11-01T06:29:11.471Z,8.50
2018-11-01T06:31:39.514Z,8.50
2018-11-01T06:34:10.155Z,8.50
2018-11-01T06:36:38.184Z,8.50
2018-11-01T06:39:07.500Z,8.40
2018-11-01T06:41:35.557Z,8.50
2018-11-01T06:44:03.545Z,8.40
2018-11-01T06:46:31.724Z,8.50
2018-11-01T06:48:59.740Z,8.50
2018-11-01T06:51:27.808Z,8.40
2018-11-01T06:53:55.939Z,8.50
2018-11-01T06:56:24.115Z,8.40
2018-11-01T06:58:52.210Z,8.40
2018-11-01T07:01:20.145Z,8.40
2018-11-01T07:03:48.141Z,8.40
2018-11-01T07:06:16.161Z,8.40
2018-11-01T07:08:44.184Z,8.50
2018-11-01T07:11:12.188Z,8.50
2018-11-01T07:13:40.208Z,8.50
2018-11-01T07:16:08.244Z,8.50
2018-11-01T07:18:36.263Z,8.50
2018-11-01T07:21:04.321Z,8.50
2018-11-01T07:23:32.337Z,8.60
2018-11-01T07:26:00.479Z,8.70
2018-11-01T07:28:28.389Z,8.80
2018-11-01T07:30:56.385Z,8.90
2018-11-01T07:33:24.428Z,9.00
2018-11-01T07:35:52.436Z,9.10
2018-11-01T07:38:20.463Z,9.20
2018-11-01T07:40:48.491Z,9.30
2018-11-01T07:43:16.527Z,9.30
2018-11-01T07:45:44.552Z,9.40
2018-11-01T07:48:12.583Z,9.40
2018-11-01T07:50:40.597Z,9.40
2018-11-01T07:53:08.627Z,9.50
2018-11-01T07:55:36.641Z,9.50
2018-11-01T07:58:04.991Z,9.60
2018-11-01T08:00:33.022Z,9.70
2018-11-01T08:03:01.072Z,9.80
2018-11-01T08:05:29.073Z,9.90
2018-11-01T08:07:57.104Z,10.00
2018-11-01T08:10:25.224Z,9.90
2018-11-01T08:12:53.260Z,9.90
2018-11-01T08:15:21.952Z,9.90
2018-11-01T08:17:50.001Z,9.90
2018-11-01T08:20:18.514Z,10.00
2018-11-01T08:22:46.263Z,10.10
2018-11-01T08:25:14.752Z,10.10
2018-11-01T08:27:43.135Z,10.20
2018-11-01T08:30:13.268Z,10.10
2018-11-01T08:32:41.293Z,10.20
2018-11-01T08:35:10.537Z,10.20
2018-11-01T08:37:38.900Z,10.20
2018-11-01T08:40:07.739Z,10.20
2018-11-01T08:42:35.763Z,10.20
2018-11-01T08:45:03.918Z,10.30
2018-11-01T08:47:31.964Z,10.40
2018-11-01T08:50:00.042Z,10.50
2018-11-01T08:52:28.029Z,10.70
2018-11-01T08:54:56.123Z,10.80
2018-11-01T08:57:24.203Z,10.90
2018-11-01T08:59:52.244Z,11.00
2018-11-01T09:02:20.264Z,11.10
2018-11-01T09:04:48.348Z,11.20
2018-11-01T09:07:16.404Z,11.20
2018-11-01T09:09:44.532Z,11.20
2018-11-01T09:12:12.925Z,11.20
2018-11-01T09:14:41.089Z,11.20
2018-11-01T09:17:09.061Z,11.20
2018-11-01T09:19:37.092Z,11.30
2018-11-01T09:22:05.295Z,11.40
2018-11-01T09:24:33.339Z,11.50
2018-11-01T09:27:01.425Z,11.60
2018-11-01T09:29:29.401Z,11.60
2018-11-01T09:31:57.436Z,11.70
2018-11-01T09:34:25.500Z,11.70
2018-11-01T09:36:53.548Z,11.70
2018-11-01T09:39:21.604Z,11.70
2018-11-01T09:41:49.635Z,11.80
2018-11-01T09:44:17.681Z,11.90
2018-11-01T09:46:46.028Z,12.00
2018-11-01T09:49:13.773Z,12.00
2018-11-01T09:51:41.799Z,12.10
2018-11-01T09:54:09.873Z,12.00
2018-11-01T09:56:38.018Z,12.10
2018-11-01T09:59:05.943Z,12.10
2018-11-01T10:01:33.967Z,12.10
2018-11-01T10:04:01.996Z,12.10
2018-11-01T10:06:30.041Z,12.20
2018-11-01T10:08:58.068Z,12.20
2018-11-01T10:11:26.107Z,12.20
2018-11-01T10:13:54.127Z,12.20
2018-11-01T10:16:22.302Z,12.20
2018-11-01T10:18:50.209Z,12.10
2018-11-01T10:21:18.279Z,12.10
2018-11-01T10:23:46.276Z,12.10
2018-11-01T10:26:14.312Z,12.20
2018-11-01T10:28:42.384Z,12.20
2018-11-01T10:31:10.433Z,12.20
2018-11-01T10:33:38.492Z,12.30
2018-11-01T10:36:06.507Z,12.30
2018-11-01T10:38:34.529Z,12.50
2018-11-01T10:41:02.578Z,12.70
2018-11-01T10:43:30.624Z,12.70
2018-11-01T10:45:58.664Z,12.70
2018-11-01T10:48:26.702Z,12.70
2018-11-01T10:50:54.726Z,12.70
2018-11-01T10:53:22.765Z,12.70
2018-11-01T10:55:50.804Z,12.70
2018-11-01T10:58:18.840Z,12.80
2018-11-01T11:00:52.561Z,12.80
2018-11-01T11:03:20.508Z,12.90
2018-11-01T11:05:48.555Z,13.00
2018-11-01T11:08:16.588Z,13.20
2018-11-01T11:10:44.629Z,13.30
2018-11-01T11:13:12.696Z,13.40
2018-11-01T11:15:40.721Z,13.40
2018-11-01T11:18:08.777Z,13.50
2018-11-01T11:20:37.030Z,13.50
2018-11-01T11:23:04.839Z,13.50
2018-11-01T11:25:32.863Z,13.40
2018-11-01T11:28:00.895Z,13.40
2018-11-01T11:30:28.976Z,13.50
2018-11-01T11:32:56.944Z,13.50
2018-11-01T11:35:25.062Z,13.30
2018-11-01T11:37:53.025Z,13.30
2018-11-01T11:40:21.068Z,13.30
2018-11-01T11:42:49.112Z,13.30
2018-11-01T11:45:17.162Z,13.50
2018-11-01T11:47:45.183Z,13.60
2018-11-01T11:50:13.956Z,13.60
2018-11-01T11:52:43.259Z,13.60
2018-11-01T11:55:11.538Z,13.60
2018-11-01T11:57:39.806Z,13.50
2018-11-01T12:00:10.850Z,13.40
2018-11-01T12:02:38.860Z,13.50
2018-11-01T12:05:07.296Z,13.50
2018-11-01T12:07:35.312Z,13.50
2018-11-01T12:10:03.342Z,13.70
2018-11-01T12:12:31.355Z,13.80
2018-11-01T12:14:59.394Z,14.00
2018-11-01T12:17:27.418Z,14.00
2018-11-01T12:19:55.444Z,14.00
2018-11-01T12:22:23.634Z,14.00
2018-11-01T12:24:51.624Z,14.00
2018-11-01T12:27:19.650Z,13.90
2018-11-01T12:29:47.681Z,13.80
2018-11-01T12:32:15.723Z,13.70
2018-11-01T12:34:43.755Z,13.60
2018-11-01T12:37:11.772Z,13.70
2018-11-01T12:39:39.779Z,13.70
2018-11-01T12:42:07.847Z,13.60
2018-11-01T12:44:35.908Z,13.50
2018-11-01T12:47:03.929Z,13.50
2018-11-01T12:49:31.986Z,13.50
2018-11-01T12:51:59.996Z,13.60
2018-11-01T12:54:28.024Z,13.50
2018-11-01T12:56:56.036Z,13.50
2018-11-01T12:59:24.087Z,13.60
2018-11-01T13:01:52.120Z,13.60
2018-11-01T13:04:20.145Z,13.40
2018-11-01T13:06:48.236Z,13.40
2018-11-01T13:09:16.272Z,13.40
2018-11-01T13:11:45.080Z,13.30
2018-11-01T13:14:13.112Z,13.20
2018-11-01T13:16:41.180Z,13.20
2018-11-01T13:19:09.204Z,13.20
2018-11-01T13:21:37.216Z,13.20
2018-11-01T13:24:05.484Z,13.30
2018-11-01T13:26:33.509Z,13.40
2018-11-01T13:29:01.526Z,13.50
2018-11-01T13:31:29.548Z,13.50
2018-11-01T13:33:57.568Z,13.50
2018-11-01T13:36:25.595Z,13.40
2018-11-01T13:38:53.644Z,13.40
2018-11-01T13:41:21.759Z,13.40
2018-11-01T13:43:49.723Z,13.20
2018-11-01T13:46:17.849Z,13.20
2018-11-01T13:48:45.856Z,13.10
2018-11-01T13:51:13.884Z,13.10
2018-11-01T13:53:41.994Z,13.00
2018-11-01T13:56:10.004Z,12.90
2018-11-01T13:58:38.047Z,12.90
2018-11-01T14:01:06.307Z,13.00
2018-11-01T14:03:34.333Z,13.00
2018-11-01T14:06:02.425Z,13.10
2018-11-01T14:08:30.402Z,13.00
2018-11-01T14:10:58.423Z,13.00
2018-11-01T14:13:26.629Z,12.90
2018-11-01T14:15:54.504Z,12.90
2018-11-01T14:18:22.537Z,12.90
2018-11-01T14:20:50.580Z,12.80
2018-11-01T14:23:18.624Z,12.80
2018-11-01T14:25:46.642Z,12.90
2018-11-01T14:28:14.701Z,12.80
2018-11-01T14:30:42.736Z,12.70
2018-11-01T14:33:10.756Z,12.60
2018-11-01T14:35:38.804Z,12.50
2018-11-01T14:38:06.850Z,12.50
2018-11-01T14:40:34.877Z,12.50
2018-11-01T14:43:02.938Z,12.50
2018-11-01T14:45:30.976Z,12.40
2018-11-01T14:47:58.996Z,12.40
2018-11-01T14:50:27.029Z,12.50
2018-11-01T14:52:55.892Z,12.50
2018-11-01T14:55:24.095Z,12.50
2018-11-01T14:57:52.591Z,12.50
2018-11-01T15:00:19.226Z,12.50
2018-11-01T15:02:47.284Z,12.60
2018-11-01T15:05:15.300Z,12.60
2018-11-01T15:07:43.312Z,12.60
2018-11-01T15:10:13.016Z,12.50
2018-11-01T15:12:41.296Z,12.50
2018-11-01T15:15:09.665Z,12.40
2018-11-01T15:17:39.284Z,12.30
2018-11-01T15:20:07.768Z,12.30
2018-11-01T15:22:35.936Z,12.30
2018-11-01T15:25:04.245Z,12.40
2018-11-01T15:27:32.284Z,12.20
2018-11-01T15:30:00.375Z,12.20
2018-11-01T15:32:29.331Z,12.20
2018-11-01T15:34:58.133Z,12.10
2018-11-01T15:37:26.182Z,12.20
2018-11-01T15:39:54.793Z,12.20
2018-11-01T15:42:22.812Z,12.20
2018-11-01T15:44:51.020Z,12.20
2018-11-01T15:47:19.061Z,12.30
2018-11-01T15:49:47.072Z,12.40
2018-11-01T15:52:15.132Z,12.40
2018-11-01T15:54:43.156Z,12.20
2018-11-01T15:57:11.172Z,12.20
2018-11-01T15:59:39.307Z,12.10
2018-11-01T16:02:07.246Z,12.10
2018-11-01T16:04:35.260Z,12.00
2018-11-01T16:07:03.315Z,12.00
2018-11-01T16:09:31.384Z,11.90
2018-11-01T16:11:59.419Z,11.80
2018-11-01T16:14:27.458Z,11.80
2018-11-01T16:16:55.485Z,11.80
2018-11-01T16:19:23.610Z,11.80
2018-11-01T16:21:51.542Z,11.80
2018-11-01T16:24:19.569Z,11.80
2018-11-01T16:26:47.679Z,11.80
2018-11-01T16:29:15.663Z,11.80
2018-11-01T16:31:43.684Z,11.90
2018-11-01T16:34:11.720Z,11.80
2018-11-01T16:36:39.909Z,11.80
2018-11-01T16:39:12.165Z,11.80
2018-11-01T16:41:40.709Z,11.80
2018-11-01T16:44:09.325Z,11.70
2018-11-01T16:46:37.368Z,11.80
2018-11-01T16:49:06.312Z,11.80
2018-11-01T16:51:34.410Z,11.80
2018-11-01T16:54:02.412Z,11.80
2018-11-01T16:56:30.449Z,11.80
2018-11-01T16:58:58.521Z,11.80
2018-11-01T17:01:26.536Z,11.80
2018-11-01T17:03:54.577Z,11.80
2018-11-01T17:06:22.621Z,11.70
2018-11-01T17:08:50.809Z,11.60
2018-11-01T17:11:18.848Z,11.50
2018-11-01T17:13:46.880Z,11.60
2018-11-01T17:16:14.889Z,11.60
2018-11-01T17:18:43.120Z,11.50
2018-11-01T17:21:11.135Z,11.50
2018-11-01T17:23:39.393Z,11.50
2018-11-01T17:26:07.422Z,11.50
2018-11-01T17:28:35.469Z,11.50
2018-11-01T17:31:03.533Z,11.40
2018-11-01T17:33:31.548Z,11.40
2018-11-01T17:35:59.605Z,11.40
2018-11-01T17:38:27.625Z,11.40
2018-11-01T17:40:55.661Z,11.40
2018-11-01T17:43:23.780Z,11.40
2018-11-01T17:45:51.770Z,11.30
2018-11-01T17:48:19.828Z,11.30
2018-11-01T17:50:47.885Z,11.40
2018-11-01T17:53:15.916Z,11.50
2018-11-01T17:55:44.005Z,11.50
2018-11-01T17:58:12.022Z,11.50
2018-11-01T18:00:40.060Z,11.50
2018-11-01T18:03:14.509Z,11.50
2018-11-01T18:05:45.722Z,11.50
2018-11-01T18:08:13.818Z,11.50
2018-11-01T18:10:41.812Z,11.50
2018-11-01T18:13:09.900Z,11.50
2018-11-01T18:15:37.893Z,11.40
2018-11-01T18:18:05.931Z,11.40
2018-11-01T18:20:33.981Z,11.40
2018-11-01T18:23:02.045Z,11.30
2018-11-01T18:25:30.122Z,11.40
2018-11-01T18:27:58.107Z,11.40
2018-11-01T18:30:26.164Z,11.40
2018-11-01T18:32:54.419Z,11.40
2018-11-01T18:35:22.266Z,11.40
2018-11-01T18:37:50.293Z,11.40
2018-11-01T18:40:18.840Z,11.40
2018-11-01T18:42:46.899Z,11.40
2018-11-01T18:45:15.545Z,11.40
2018-11-01T18:47:44.139Z,11.40
2018-11-01T18:50:13.624Z,11.40
2018-11-01T18:52:41.806Z,11.40
2018-11-01T18:55:11.102Z,11.40
2018-11-01T18:57:39.283Z,11.40
2018-11-01T19:00:09.813Z,11.40
2018-11-01T19:02:37.931Z,11.40
2018-11-01T19:05:06.332Z,11.30
2018-11-01T19:07:34.380Z,11.30
2018-11-01T19:10:02.452Z,11.40
2018-11-01T19:12:30.530Z,11.30
2018-11-01T19:14:58.557Z,11.40
2018-11-01T19:17:26.612Z,11.30
2018-11-01T19:19:54.661Z,11.30
2018-11-01T19:22:22.692Z,11.30
2018-11-01T19:24:50.717Z,11.40
2018-11-01T19:27:19.032Z,11.40
2018-11-01T19:29:46.810Z,11.50
2018-11-01T19:32:14.832Z,11.60
2018-11-01T19:34:43.021Z,11.50
2018-11-01T19:37:11.176Z,11.50
2018-11-01T19:39:39.216Z,11.40
2018-11-01T19:42:07.416Z,11.40
2018-11-01T19:44:35.575Z,11.30
2018-11-01T19:47:03.591Z,11.30
2018-11-01T19:49:31.651Z,11.30
2018-11-01T19:51:59.640Z,11.30
2018-11-01T19:54:27.716Z,11.40
2018-11-01T19:56:55.739Z,11.40
2018-11-01T19:59:23.748Z,11.40
2018-11-01T20:01:51.792Z,11.50
2018-11-01T20:04:19.851Z,11.40
2018-11-01T20:06:48.039Z,11.30
2018-11-01T20:09:16.056Z,11.20
2018-11-01T20:11:44.088Z,11.20
2018-11-01T20:14:12.121Z,11.30
2018-11-01T20:16:40.195Z,11.40
2018-11-01T20:19:08.378Z,11.40
2018-11-01T20:21:36.392Z,11.40
2018-11-01T20:24:04.340Z,11.40
2018-11-01T20:26:32.371Z,11.30
2018-11-01T20:29:00.404Z,11.20
2018-11-01T20:31:28.433Z,11.00
2018-11-01T20:33:56.485Z,10.90
2018-11-01T20:36:24.542Z,10.80
2018-11-01T20:38:52.567Z,10.70
2018-11-01T20:41:20.596Z,10.60
2018-11-01T20:43:48.869Z,10.50
2018-11-01T20:46:16.939Z,10.40
2018-11-01T20:48:44.979Z,10.50
2018-11-01T20:51:13.013Z,10.50
2018-11-01T20:53:41.672Z,10.40
2018-11-01T20:56:09.721Z,10.40
2018-11-01T20:58:37.753Z,10.30
2018-11-01T21:01:05.772Z,10.30
2018-11-01T21:03:33.839Z,10.20
2018-11-01T21:06:01.846Z,10.10
2018-11-01T21:08:29.881Z,10.10
2018-11-01T21:10:57.974Z,10.00
2018-11-01T21:13:25.944Z,10.00
2018-11-01T21:15:53.984Z,9.90
2018-11-01T21:18:22.177Z,9.90
2018-11-01T21:20:50.349Z,9.90
2018-11-01T21:23:18.381Z,9.90
2018-11-01T21:25:46.404Z,9.90
2018-11-01T21:28:14.427Z,9.90
2018-11-01T21:30:42.439Z,9.90
2018-11-01T21:33:10.476Z,9.90
2018-11-01T21:35:38.604Z,9.80
2018-11-01T21:38:06.513Z,9.80
2018-11-01T21:40:34.565Z,9.80
2018-11-01T21:43:02.589Z,9.80
2018-11-01T21:45:30.637Z,9.80
2018-11-01T21:47:58.668Z,9.80
2018-11-01T21:50:26.691Z,9.80
2018-11-01T21:52:54.733Z,9.80
2018-11-01T21:55:22.766Z,9.80
2018-11-01T21:57:50.819Z,9.80
2018-11-01T22:00:18.844Z,9.80
2018-11-01T22:02:46.885Z,9.80
2018-11-01T22:05:14.913Z,9.90
2018-11-01T22:07:42.957Z,9.90
2018-11-01T22:10:11.340Z,9.90
2018-11-01T22:12:39.379Z,10.00
2018-11-01T22:15:09.013Z,10.00
2018-11-01T22:17:37.068Z,10.00
2018-11-01T22:20:05.976Z,10.00
2018-11-01T22:22:34.015Z,9.90
2018-11-01T22:25:02.092Z,9.90
2018-11-01T22:27:30.125Z,9.90
2018-11-01T22:29:58.277Z,9.90
2018-11-01T22:32:26.325Z,10.00
2018-11-01T22:34:54.377Z,10.00
2018-11-01T22:37:22.424Z,9.90
2018-11-01T22:39:50.449Z,9.90
2018-11-01T22:42:18.488Z,10.00
2018-11-01T22:44:46.529Z,10.00
2018-11-01T22:47:14.552Z,10.10
2018-11-01T22:49:42.572Z,10.10
2018-11-01T22:52:10.617Z,10.10
2018-11-01T22:54:38.684Z,10.10
2018-11-01T22:57:06.744Z,10.10
2018-11-01T22:59:34.870Z,10.10
2018-11-01T23:02:02.816Z,10.10
2018-11-01T23:04:30.840Z,10.10
2018-11-01T23:06:58.913Z,10.20
2018-11-01T23:09:26.927Z,10.10
2018-11-01T23:11:54.950Z,10.00
2018-11-01T23:14:22.996Z,10.00
2018-11-01T23:16:51.021Z,9.90
2018-11-01T23:19:19.049Z,9.90
2018-11-01T23:21:47.160Z,9.90
2018-11-01T23:24:15.325Z,9.90
2018-11-01T23:26:43.343Z,9.90
2018-11-01T23:29:11.421Z,9.90
2018-11-01T23:31:39.497Z,10.00
2018-11-01T23:34:07.525Z,10.10
2018-11-01T23:36:41.161Z,10.10
2018-11-01T23:39:14.708Z,10.20
2018-11-01T23:41:48.500Z,10.20
2018-11-01T23:44:22.273Z,10.30
2018-11-01T23:46:55.933Z,10.20
2018-11-01T23:49:33.172Z,10.20
2018-11-01T23:52:03.436Z,10.20
2018-11-01T23:54:31.452Z,10.20
2018-11-01T23:56:59.472Z,10.20
2018-11-01T23:59:27.528Z,10.30
